sensor_id;sensor_type;location;lat;lon;timestamp;P1;durP1;ratioP1;P2;durP2;ratioP2
56943;SDS011;42848;42.524;12.052;2023-04-19T00:01:49;2.72;;;1.92;;
56943;SDS011;42848;42.524;12.052;2023-04-19T00:04:15;3.20;;;2.10;;
56943;SDS011;42848;42.524;12.052;2023-04-19T00:06:40;3.40;;;2.15;;
56943;SDS011;42848;42.524;12.052;2023-04-19T00:09:06;3.00;;;2.00;;
56943;SDS011;42848;42.524;12.052;2023-04-19T00:11:33;3.42;;;2.08;;
56943;SDS011;42848;42.524;12.052;2023-04-19T00:13:59;2.90;;;2.00;;
56943;SDS011;42848;42.524;12.052;2023-04-19T00:16:24;2.90;;;2.00;;
56943;SDS011;42848;42.524;12.052;2023-04-19T00:18:50;3.63;;;2.20;;
56943;SDS011;42848;42.524;12.052;2023-04-19T00:21:16;2.90;;;1.90;;
56943;SDS011;42848;42.524;12.052;2023-04-19T00:23:42;3.13;;;2.00;;
56943;SDS011;42848;42.524;12.052;2023-04-19T00:26:07;3.25;;;2.10;;
56943;SDS011;42848;42.524;12.052;2023-04-19T00:28:35;3.15;;;2.15;;
56943;SDS011;42848;42.524;12.052;2023-04-19T00:31:01;3.40;;;1.98;;
56943;SDS011;42848;42.524;12.052;2023-04-19T00:33:27;2.97;;;1.80;;
56943;SDS011;42848;42.524;12.052;2023-04-19T00:35:53;2.88;;;1.88;;
56943;SDS011;42848;42.524;12.052;2023-04-19T00:38:18;3.10;;;2.10;;
56943;SDS011;42848;42.524;12.052;2023-04-19T00:40:44;3.17;;;2.08;;
56943;SDS011;42848;42.524;12.052;2023-04-19T00:43:11;3.30;;;2.10;;
56943;SDS011;42848;42.524;12.052;2023-04-19T00:45:36;3.22;;;2.10;;
56943;SDS011;42848;42.524;12.052;2023-04-19T00:48:02;2.60;;;1.80;;
56943;SDS011;42848;42.524;12.052;2023-04-19T00:50:28;2.92;;;2.00;;
56943;SDS011;42848;42.524;12.052;2023-04-19T00:52:55;3.25;;;1.98;;
56943;SDS011;42848;42.524;12.052;2023-04-19T00:55:22;3.30;;;2.00;;
56943;SDS011;42848;42.524;12.052;2023-04-19T00:57:48;2.65;;;1.80;;
56943;SDS011;42848;42.524;12.052;2023-04-19T01:00:16;2.85;;;1.90;;
56943;SDS011;42848;42.524;12.052;2023-04-19T01:02:42;2.97;;;1.80;;
56943;SDS011;42848;42.524;12.052;2023-04-19T01:05:07;2.80;;;1.77;;
56943;SDS011;42848;42.524;12.052;2023-04-19T01:07:33;2.88;;;1.85;;
56943;SDS011;42848;42.524;12.052;2023-04-19T01:09:59;2.78;;;1.98;;
56943;SDS011;42848;42.524;12.052;2023-04-19T01:12:25;2.72;;;1.67;;
56943;SDS011;42848;42.524;12.052;2023-04-19T01:14:51;2.70;;;1.70;;
56943;SDS011;42848;42.524;12.052;2023-04-19T01:17:17;3.15;;;1.83;;
56943;SDS011;42848;42.524;12.052;2023-04-19T01:19:43;2.80;;;1.70;;
56943;SDS011;42848;42.524;12.052;2023-04-19T01:22:19;2.50;;;1.60;;
56943;SDS011;42848;42.524;12.052;2023-04-19T01:24:47;3.00;;;1.90;;
56943;SDS011;42848;42.524;12.052;2023-04-19T01:27:12;2.95;;;1.90;;
56943;SDS011;42848;42.524;12.052;2023-04-19T01:29:38;3.10;;;2.00;;
56943;SDS011;42848;42.524;12.052;2023-04-19T01:32:04;3.17;;;1.80;;
56943;SDS011;42848;42.524;12.052;2023-04-19T01:34:30;4.22;;;2.10;;
56943;SDS011;42848;42.524;12.052;2023-04-19T01:36:56;3.35;;;1.95;;
56943;SDS011;42848;42.524;12.052;2023-04-19T01:39:21;3.10;;;1.95;;
56943;SDS011;42848;42.524;12.052;2023-04-19T01:41:50;3.20;;;2.10;;
56943;SDS011;42848;42.524;12.052;2023-04-19T01:44:15;3.20;;;1.85;;
56943;SDS011;42848;42.524;12.052;2023-04-19T01:46:41;3.78;;;2.03;;
56943;SDS011;42848;42.524;12.052;2023-04-19T01:49:07;2.80;;;1.65;;
56943;SDS011;42848;42.524;12.052;2023-04-19T01:51:33;3.15;;;1.80;;
56943;SDS011;42848;42.524;12.052;2023-04-19T01:53:59;3.03;;;1.83;;
56943;SDS011;42848;42.524;12.052;2023-04-19T01:56:26;3.28;;;1.80;;
56943;SDS011;42848;42.524;12.052;2023-04-19T01:58:52;2.63;;;1.80;;
56943;SDS011;42848;42.524;12.052;2023-04-19T02:01:18;4.75;;;1.95;;
56943;SDS011;42848;42.524;12.052;2023-04-19T02:03:43;3.08;;;1.90;;
56943;SDS011;42848;42.524;12.052;2023-04-19T02:06:10;2.95;;;1.80;;
56943;SDS011;42848;42.524;12.052;2023-04-19T02:08:37;3.03;;;2.03;;
56943;SDS011;42848;42.524;12.052;2023-04-19T02:11:07;2.90;;;1.85;;
56943;SDS011;42848;42.524;12.052;2023-04-19T02:13:33;2.60;;;1.70;;
56943;SDS011;42848;42.524;12.052;2023-04-19T02:15:59;2.60;;;1.90;;
56943;SDS011;42848;42.524;12.052;2023-04-19T02:18:28;3.00;;;2.00;;
56943;SDS011;42848;42.524;12.052;2023-04-19T02:21:03;2.75;;;1.83;;
56943;SDS011;42848;42.524;12.052;2023-04-19T02:23:30;2.70;;;1.70;;
56943;SDS011;42848;42.524;12.052;2023-04-19T02:25:56;3.63;;;2.03;;
56943;SDS011;42848;42.524;12.052;2023-04-19T02:28:22;3.40;;;1.65;;
56943;SDS011;42848;42.524;12.052;2023-04-19T02:30:48;2.83;;;1.80;;
56943;SDS011;42848;42.524;12.052;2023-04-19T02:33:14;3.75;;;1.90;;
56943;SDS011;42848;42.524;12.052;2023-04-19T02:35:40;2.70;;;1.70;;
56943;SDS011;42848;42.524;12.052;2023-04-19T02:38:06;2.60;;;1.70;;
56943;SDS011;42848;42.524;12.052;2023-04-19T02:40:31;3.08;;;1.98;;
56943;SDS011;42848;42.524;12.052;2023-04-19T02:42:57;3.00;;;2.10;;
56943;SDS011;42848;42.524;12.052;2023-04-19T02:45:23;3.17;;;1.90;;
56943;SDS011;42848;42.524;12.052;2023-04-19T02:47:49;3.25;;;2.05;;
56943;SDS011;42848;42.524;12.052;2023-04-19T02:50:15;2.70;;;1.75;;
56943;SDS011;42848;42.524;12.052;2023-04-19T02:52:41;3.22;;;1.80;;
56943;SDS011;42848;42.524;12.052;2023-04-19T02:55:07;3.85;;;1.70;;
56943;SDS011;42848;42.524;12.052;2023-04-19T02:57:33;2.33;;;1.60;;
56943;SDS011;42848;42.524;12.052;2023-04-19T02:59:59;4.00;;;1.80;;
56943;SDS011;42848;42.524;12.052;2023-04-19T03:02:24;2.70;;;1.60;;
56943;SDS011;42848;42.524;12.052;2023-04-19T03:04:50;2.13;;;1.45;;
56943;SDS011;42848;42.524;12.052;2023-04-19T03:07:17;2.50;;;1.60;;
56943;SDS011;42848;42.524;12.052;2023-04-19T03:09:43;3.53;;;1.70;;
56943;SDS011;42848;42.524;12.052;2023-04-19T03:12:09;2.88;;;1.70;;
56943;SDS011;42848;42.524;12.052;2023-04-19T03:14:35;2.60;;;1.58;;
56943;SDS011;42848;42.524;12.052;2023-04-19T03:17:01;2.40;;;1.70;;
56943;SDS011;42848;42.524;12.052;2023-04-19T03:19:27;2.90;;;1.70;;
56943;SDS011;42848;42.524;12.052;2023-04-19T03:21:53;2.28;;;1.60;;
56943;SDS011;42848;42.524;12.052;2023-04-19T03:24:19;2.40;;;1.60;;
56943;SDS011;42848;42.524;12.052;2023-04-19T03:26:44;2.50;;;1.80;;
56943;SDS011;42848;42.524;12.052;2023-04-19T03:29:11;2.92;;;1.65;;
56943;SDS011;42848;42.524;12.052;2023-04-19T03:31:38;2.55;;;1.70;;
56943;SDS011;42848;42.524;12.052;2023-04-19T03:34:04;2.67;;;1.60;;
56943;SDS011;42848;42.524;12.052;2023-04-19T03:36:29;3.28;;;1.70;;
56943;SDS011;42848;42.524;12.052;2023-04-19T03:38:55;2.35;;;1.52;;
56943;SDS011;42848;42.524;12.052;2023-04-19T03:41:22;3.83;;;1.88;;
56943;SDS011;42848;42.524;12.052;2023-04-19T03:43:49;2.38;;;1.65;;
56943;SDS011;42848;42.524;12.052;2023-04-19T03:46:14;3.00;;;1.90;;
56943;SDS011;42848;42.524;12.052;2023-04-19T03:48:40;3.20;;;2.10;;
56943;SDS011;42848;42.524;12.052;2023-04-19T03:51:06;3.65;;;1.92;;
56943;SDS011;42848;42.524;12.052;2023-04-19T03:53:32;3.40;;;1.80;;
56943;SDS011;42848;42.524;12.052;2023-04-19T03:55:57;2.75;;;1.80;;
56943;SDS011;42848;42.524;12.052;2023-04-19T03:58:23;3.08;;;1.90;;
56943;SDS011;42848;42.524;12.052;2023-04-19T04:00:49;2.92;;;1.80;;
56943;SDS011;42848;42.524;12.052;2023-04-19T04:03:16;3.33;;;1.85;;
56943;SDS011;42848;42.524;12.052;2023-04-19T04:05:42;3.40;;;2.05;;
56943;SDS011;42848;42.524;12.052;2023-04-19T04:08:07;3.03;;;2.10;;
56943;SDS011;42848;42.524;12.052;2023-04-19T04:10:33;5.20;;;1.90;;
56943;SDS011;42848;42.524;12.052;2023-04-19T04:12:59;3.08;;;2.00;;
56943;SDS011;42848;42.524;12.052;2023-04-19T04:15:25;3.95;;;1.80;;
56943;SDS011;42848;42.524;12.052;2023-04-19T04:17:50;3.65;;;2.08;;
56943;SDS011;42848;42.524;12.052;2023-04-19T04:20:16;3.50;;;1.90;;
56943;SDS011;42848;42.524;12.052;2023-04-19T04:22:42;3.17;;;1.90;;
56943;SDS011;42848;42.524;12.052;2023-04-19T04:25:10;2.97;;;1.98;;
56943;SDS011;42848;42.524;12.052;2023-04-19T04:27:36;3.20;;;1.90;;
56943;SDS011;42848;42.524;12.052;2023-04-19T04:30:06;4.35;;;1.92;;
56943;SDS011;42848;42.524;12.052;2023-04-19T04:32:33;2.72;;;1.75;;
56943;SDS011;42848;42.524;12.052;2023-04-19T04:35:02;4.40;;;1.98;;
56943;SDS011;42848;42.524;12.052;2023-04-19T04:37:32;4.25;;;2.00;;
56943;SDS011;42848;42.524;12.052;2023-04-19T04:39:59;4.30;;;1.95;;
56943;SDS011;42848;42.524;12.052;2023-04-19T04:42:25;3.25;;;1.90;;
56943;SDS011;42848;42.524;12.052;2023-04-19T04:44:52;3.70;;;2.05;;
56943;SDS011;42848;42.524;12.052;2023-04-19T04:47:19;3.10;;;2.00;;
56943;SDS011;42848;42.524;12.052;2023-04-19T04:49:45;3.63;;;2.05;;
56943;SDS011;42848;42.524;12.052;2023-04-19T04:52:11;3.67;;;2.00;;
56943;SDS011;42848;42.524;12.052;2023-04-19T04:54:36;4.40;;;2.13;;
56943;SDS011;42848;42.524;12.052;2023-04-19T04:57:02;3.88;;;2.30;;
56943;SDS011;42848;42.524;12.052;2023-04-19T04:59:28;3.55;;;2.28;;
56943;SDS011;42848;42.524;12.052;2023-04-19T05:01:53;3.65;;;2.10;;
56943;SDS011;42848;42.524;12.052;2023-04-19T05:04:19;3.10;;;2.00;;
56943;SDS011;42848;42.524;12.052;2023-04-19T05:06:45;3.35;;;2.17;;
56943;SDS011;42848;42.524;12.052;2023-04-19T05:09:11;3.88;;;2.20;;
56943;SDS011;42848;42.524;12.052;2023-04-19T05:11:36;3.63;;;2.00;;
56943;SDS011;42848;42.524;12.052;2023-04-19T05:14:02;5.20;;;2.10;;
56943;SDS011;42848;42.524;12.052;2023-04-19T05:16:28;12.30;;;8.07;;
56943;SDS011;42848;42.524;12.052;2023-04-19T05:18:54;29.08;;;17.92;;
56943;SDS011;42848;42.524;12.052;2023-04-19T05:21:20;5.30;;;3.45;;
56943;SDS011;42848;42.524;12.052;2023-04-19T05:23:46;3.35;;;2.05;;
56943;SDS011;42848;42.524;12.052;2023-04-19T05:26:13;4.00;;;2.10;;
56943;SDS011;42848;42.524;12.052;2023-04-19T05:28:40;4.80;;;2.45;;
56943;SDS011;42848;42.524;12.052;2023-04-19T05:31:08;3.45;;;2.08;;
56943;SDS011;42848;42.524;12.052;2023-04-19T05:33:33;5.07;;;2.10;;
56943;SDS011;42848;42.524;12.052;2023-04-19T05:35:59;3.70;;;2.17;;
56943;SDS011;42848;42.524;12.052;2023-04-19T05:38:24;5.03;;;2.40;;
56943;SDS011;42848;42.524;12.052;2023-04-19T05:40:50;6.07;;;3.08;;
56943;SDS011;42848;42.524;12.052;2023-04-19T05:43:16;8.50;;;4.63;;
56943;SDS011;42848;42.524;12.052;2023-04-19T05:45:41;9.23;;;5.75;;
56943;SDS011;42848;42.524;12.052;2023-04-19T05:48:07;7.15;;;5.18;;
56943;SDS011;42848;42.524;12.052;2023-04-19T05:50:33;8.10;;;5.25;;
56943;SDS011;42848;42.524;12.052;2023-04-19T05:53:03;8.45;;;5.53;;
56943;SDS011;42848;42.524;12.052;2023-04-19T05:55:28;6.95;;;4.10;;
56943;SDS011;42848;42.524;12.052;2023-04-19T05:57:55;5.03;;;3.33;;
56943;SDS011;42848;42.524;12.052;2023-04-19T06:00:20;4.97;;;2.92;;
56943;SDS011;42848;42.524;12.052;2023-04-19T06:02:46;6.05;;;3.97;;
56943;SDS011;42848;42.524;12.052;2023-04-19T06:05:12;4.95;;;2.10;;
56943;SDS011;42848;42.524;12.052;2023-04-19T06:07:37;3.42;;;1.73;;
56943;SDS011;42848;42.524;12.052;2023-04-19T06:10:03;10.35;;;6.15;;
56943;SDS011;42848;42.524;12.052;2023-04-19T06:12:30;6.55;;;3.75;;
56943;SDS011;42848;42.524;12.052;2023-04-19T06:14:55;7.03;;;3.88;;
56943;SDS011;42848;42.524;12.052;2023-04-19T06:17:21;4.72;;;3.03;;
56943;SDS011;42848;42.524;12.052;2023-04-19T06:19:48;3.85;;;2.40;;
56943;SDS011;42848;42.524;12.052;2023-04-19T06:22:15;9.95;;;6.22;;
56943;SDS011;42848;42.524;12.052;2023-04-19T06:24:40;4.20;;;2.50;;
56943;SDS011;42848;42.524;12.052;2023-04-19T06:27:06;7.10;;;4.70;;
56943;SDS011;42848;42.524;12.052;2023-04-19T06:29:32;12.82;;;8.10;;
56943;SDS011;42848;42.524;12.052;2023-04-19T06:31:57;8.93;;;5.13;;
56943;SDS011;42848;42.524;12.052;2023-04-19T06:34:23;5.50;;;3.70;;
56943;SDS011;42848;42.524;12.052;2023-04-19T06:36:48;5.07;;;3.42;;
56943;SDS011;42848;42.524;12.052;2023-04-19T06:39:14;5.28;;;3.28;;
56943;SDS011;42848;42.524;12.052;2023-04-19T06:41:40;4.47;;;2.80;;
56943;SDS011;42848;42.524;12.052;2023-04-19T06:44:05;4.85;;;2.63;;
56943;SDS011;42848;42.524;12.052;2023-04-19T06:46:31;4.00;;;2.30;;
56943;SDS011;42848;42.524;12.052;2023-04-19T06:48:57;3.80;;;2.20;;
56943;SDS011;42848;42.524;12.052;2023-04-19T06:51:22;4.72;;;3.30;;
56943;SDS011;42848;42.524;12.052;2023-04-19T06:53:49;10.38;;;6.57;;
56943;SDS011;42848;42.524;12.052;2023-04-19T06:56:15;9.75;;;5.40;;
56943;SDS011;42848;42.524;12.052;2023-04-19T06:58:41;6.00;;;3.45;;
56943;SDS011;42848;42.524;12.052;2023-04-19T07:01:06;3.35;;;2.30;;
56943;SDS011;42848;42.524;12.052;2023-04-19T07:03:32;3.30;;;2.03;;
56943;SDS011;42848;42.524;12.052;2023-04-19T07:05:58;3.25;;;2.00;;
56943;SDS011;42848;42.524;12.052;2023-04-19T07:08:23;3.40;;;2.20;;
56943;SDS011;42848;42.524;12.052;2023-04-19T07:10:49;3.15;;;1.95;;
56943;SDS011;42848;42.524;12.052;2023-04-19T07:13:15;3.80;;;2.10;;
56943;SDS011;42848;42.524;12.052;2023-04-19T07:15:41;3.20;;;2.00;;
56943;SDS011;42848;42.524;12.052;2023-04-19T07:18:06;3.25;;;2.05;;
56943;SDS011;42848;42.524;12.052;2023-04-19T07:20:34;2.88;;;1.70;;
56943;SDS011;42848;42.524;12.052;2023-04-19T07:23:00;3.33;;;2.00;;
56943;SDS011;42848;42.524;12.052;2023-04-19T07:25:25;2.90;;;2.00;;
56943;SDS011;42848;42.524;12.052;2023-04-19T07:27:52;3.72;;;2.60;;
56943;SDS011;42848;42.524;12.052;2023-04-19T07:30:18;3.80;;;2.25;;
56943;SDS011;42848;42.524;12.052;2023-04-19T07:32:44;2.95;;;2.00;;
56943;SDS011;42848;42.524;12.052;2023-04-19T07:35:10;3.03;;;1.70;;
56943;SDS011;42848;42.524;12.052;2023-04-19T07:37:36;3.60;;;2.00;;
56943;SDS011;42848;42.524;12.052;2023-04-19T07:40:02;3.75;;;1.92;;
56943;SDS011;42848;42.524;12.052;2023-04-19T07:42:29;2.92;;;1.73;;
56943;SDS011;42848;42.524;12.052;2023-04-19T07:44:55;3.08;;;1.80;;
56943;SDS011;42848;42.524;12.052;2023-04-19T07:47:21;3.30;;;2.10;;
56943;SDS011;42848;42.524;12.052;2023-04-19T07:49:50;3.55;;;2.40;;
56943;SDS011;42848;42.524;12.052;2023-04-19T07:52:16;4.28;;;1.88;;
56943;SDS011;42848;42.524;12.052;2023-04-19T07:54:42;3.85;;;1.98;;
56943;SDS011;42848;42.524;12.052;2023-04-19T07:57:08;3.60;;;2.10;;
56943;SDS011;42848;42.524;12.052;2023-04-19T07:59:34;2.78;;;1.70;;
56943;SDS011;42848;42.524;12.052;2023-04-19T08:02:00;3.00;;;1.65;;
56943;SDS011;42848;42.524;12.052;2023-04-19T08:04:25;2.63;;;1.83;;
56943;SDS011;42848;42.524;12.052;2023-04-19T08:06:51;2.80;;;1.85;;
56943;SDS011;42848;42.524;12.052;2023-04-19T08:09:17;3.42;;;1.90;;
56943;SDS011;42848;42.524;12.052;2023-04-19T08:11:43;3.05;;;2.05;;
56943;SDS011;42848;42.524;12.052;2023-04-19T08:14:09;3.95;;;2.00;;
56943;SDS011;42848;42.524;12.052;2023-04-19T08:16:34;2.70;;;1.90;;
56943;SDS011;42848;42.524;12.052;2023-04-19T08:19:00;2.90;;;2.00;;
56943;SDS011;42848;42.524;12.052;2023-04-19T08:21:26;2.88;;;2.08;;
56943;SDS011;42848;42.524;12.052;2023-04-19T08:23:51;2.63;;;1.85;;
56943;SDS011;42848;42.524;12.052;2023-04-19T08:26:17;2.83;;;2.10;;
56943;SDS011;42848;42.524;12.052;2023-04-19T08:28:43;3.45;;;2.60;;
56943;SDS011;42848;42.524;12.052;2023-04-19T08:31:09;3.53;;;2.30;;
56943;SDS011;42848;42.524;12.052;2023-04-19T08:33:35;2.88;;;2.00;;
56943;SDS011;42848;42.524;12.052;2023-04-19T08:36:00;3.13;;;2.00;;
56943;SDS011;42848;42.524;12.052;2023-04-19T08:38:26;3.72;;;2.38;;
56943;SDS011;42848;42.524;12.052;2023-04-19T08:40:52;3.15;;;2.13;;
56943;SDS011;42848;42.524;12.052;2023-04-19T08:43:21;3.30;;;2.30;;
56943;SDS011;42848;42.524;12.052;2023-04-19T08:45:49;3.38;;;1.98;;
56943;SDS011;42848;42.524;12.052;2023-04-19T08:48:16;3.20;;;2.28;;
56943;SDS011;42848;42.524;12.052;2023-04-19T08:50:43;3.05;;;2.00;;
56943;SDS011;42848;42.524;12.052;2023-04-19T08:53:12;3.22;;;2.20;;
56943;SDS011;42848;42.524;12.052;2023-04-19T08:55:40;3.10;;;2.00;;
56943;SDS011;42848;42.524;12.052;2023-04-19T08:58:07;3.55;;;2.20;;
56943;SDS011;42848;42.524;12.052;2023-04-19T09:00:36;4.38;;;2.50;;
56943;SDS011;42848;42.524;12.052;2023-04-19T09:03:03;3.67;;;2.42;;
56943;SDS011;42848;42.524;12.052;2023-04-19T09:05:31;3.60;;;2.30;;
56943;SDS011;42848;42.524;12.052;2023-04-19T09:11:00;3.55;;;2.50;;
56943;SDS011;42848;42.524;12.052;2023-04-19T09:13:27;3.40;;;2.38;;
56943;SDS011;42848;42.524;12.052;2023-04-19T09:15:53;3.50;;;2.25;;
56943;SDS011;42848;42.524;12.052;2023-04-19T09:18:29;3.47;;;2.40;;
56943;SDS011;42848;42.524;12.052;2023-04-19T09:20:55;3.50;;;2.20;;
56943;SDS011;42848;42.524;12.052;2023-04-19T09:23:25;3.33;;;2.42;;
56943;SDS011;42848;42.524;12.052;2023-04-19T09:25:56;3.53;;;2.20;;
56943;SDS011;42848;42.524;12.052;2023-04-19T09:28:28;3.40;;;2.47;;
56943;SDS011;42848;42.524;12.052;2023-04-19T09:30:55;3.47;;;2.40;;
56943;SDS011;42848;42.524;12.052;2023-04-19T09:35:57;3.00;;;2.22;;
56943;SDS011;42848;42.524;12.052;2023-04-19T09:38:23;3.58;;;2.38;;
56943;SDS011;42848;42.524;12.052;2023-04-19T09:40:49;3.50;;;2.33;;
56943;SDS011;42848;42.524;12.052;2023-04-19T09:43:24;3.25;;;2.30;;
56943;SDS011;42848;42.524;12.052;2023-04-19T09:45:50;3.83;;;2.60;;
56943;SDS011;42848;42.524;12.052;2023-04-19T09:48:16;3.70;;;2.25;;
56943;SDS011;42848;42.524;12.052;2023-04-19T09:50:55;3.58;;;2.50;;
56943;SDS011;42848;42.524;12.052;2023-04-19T09:53:26;4.00;;;2.78;;
56943;SDS011;42848;42.524;12.052;2023-04-19T09:55:53;4.47;;;2.88;;
56943;SDS011;42848;42.524;12.052;2023-04-19T09:58:19;4.55;;;2.70;;
56943;SDS011;42848;42.524;12.052;2023-04-19T10:00:46;3.88;;;2.70;;
56943;SDS011;42848;42.524;12.052;2023-04-19T10:03:14;4.65;;;3.00;;
56943;SDS011;42848;42.524;12.052;2023-04-19T10:05:40;4.80;;;3.03;;
56943;SDS011;42848;42.524;12.052;2023-04-19T10:08:07;4.75;;;3.15;;
56943;SDS011;42848;42.524;12.052;2023-04-19T10:10:34;4.53;;;3.35;;
56943;SDS011;42848;42.524;12.052;2023-04-19T10:13:05;5.00;;;3.08;;
56943;SDS011;42848;42.524;12.052;2023-04-19T10:15:33;4.97;;;3.50;;
56943;SDS011;42848;42.524;12.052;2023-04-19T10:18:01;5.38;;;3.33;;
56943;SDS011;42848;42.524;12.052;2023-04-19T10:20:36;4.95;;;3.35;;
56943;SDS011;42848;42.524;12.052;2023-04-19T10:23:10;4.93;;;3.38;;
56943;SDS011;42848;42.524;12.052;2023-04-19T10:25:36;5.53;;;3.83;;
56943;SDS011;42848;42.524;12.052;2023-04-19T10:28:02;5.28;;;3.65;;
56943;SDS011;42848;42.524;12.052;2023-04-19T10:30:28;5.90;;;3.42;;
56943;SDS011;42848;42.524;12.052;2023-04-19T10:32:55;4.68;;;3.33;;
56943;SDS011;42848;42.524;12.052;2023-04-19T10:40:55;4.20;;;3.00;;
56943;SDS011;42848;42.524;12.052;2023-04-19T10:43:26;4.53;;;2.90;;
56943;SDS011;42848;42.524;12.052;2023-04-19T10:45:54;4.80;;;3.20;;
56943;SDS011;42848;42.524;12.052;2023-04-19T10:51:16;5.43;;;3.10;;
56943;SDS011;42848;42.524;12.052;2023-04-19T10:53:47;4.35;;;3.25;;
56943;SDS011;42848;42.524;12.052;2023-04-19T10:56:21;6.53;;;3.45;;
56943;SDS011;42848;42.524;12.052;2023-04-19T11:09:23;4.90;;;3.00;;
56943;SDS011;42848;42.524;12.052;2023-04-19T11:11:50;4.50;;;3.25;;
56943;SDS011;42848;42.524;12.052;2023-04-19T11:14:17;4.10;;;2.83;;
56943;SDS011;42848;42.524;12.052;2023-04-19T11:16:45;4.13;;;3.20;;
56943;SDS011;42848;42.524;12.052;2023-04-19T11:19:15;4.30;;;3.33;;
56943;SDS011;42848;42.524;12.052;2023-04-19T11:21:41;4.50;;;3.38;;
56943;SDS011;42848;42.524;12.052;2023-04-19T11:24:08;5.28;;;2.90;;
56943;SDS011;42848;42.524;12.052;2023-04-19T11:26:33;3.97;;;2.78;;
56943;SDS011;42848;42.524;12.052;2023-04-19T11:28:59;4.35;;;3.15;;
56943;SDS011;42848;42.524;12.052;2023-04-19T11:31:25;5.03;;;3.70;;
56943;SDS011;42848;42.524;12.052;2023-04-19T11:33:52;4.60;;;3.47;;
56943;SDS011;42848;42.524;12.052;2023-04-19T11:36:18;4.82;;;3.30;;
56943;SDS011;42848;42.524;12.052;2023-04-19T11:38:47;3.90;;;2.90;;
56943;SDS011;42848;42.524;12.052;2023-04-19T11:41:13;4.63;;;3.30;;
56943;SDS011;42848;42.524;12.052;2023-04-19T11:43:39;4.00;;;2.90;;
56943;SDS011;42848;42.524;12.052;2023-04-19T11:48:32;4.10;;;3.00;;
56943;SDS011;42848;42.524;12.052;2023-04-19T11:50:58;4.43;;;3.10;;
56943;SDS011;42848;42.524;12.052;2023-04-19T11:53:25;4.32;;;2.92;;
56943;SDS011;42848;42.524;12.052;2023-04-19T11:55:53;5.88;;;3.40;;
56943;SDS011;42848;42.524;12.052;2023-04-19T12:01:17;7.65;;;4.47;;
56943;SDS011;42848;42.524;12.052;2023-04-19T12:03:47;6.85;;;3.80;;
56943;SDS011;42848;42.524;12.052;2023-04-19T12:06:23;4.70;;;2.70;;
56943;SDS011;42848;42.524;12.052;2023-04-19T12:08:54;4.40;;;2.80;;
56943;SDS011;42848;42.524;12.052;2023-04-19T12:11:24;4.55;;;3.30;;
56943;SDS011;42848;42.524;12.052;2023-04-19T12:14:17;5.10;;;2.50;;
56943;SDS011;42848;42.524;12.052;2023-04-19T12:17:02;3.60;;;2.50;;
56943;SDS011;42848;42.524;12.052;2023-04-19T12:19:36;7.90;;;4.70;;
56943;SDS011;42848;42.524;12.052;2023-04-19T12:22:17;9.02;;;6.00;;
56943;SDS011;42848;42.524;12.052;2023-04-19T12:24:53;7.82;;;4.57;;
56943;SDS011;42848;42.524;12.052;2023-04-19T12:27:20;3.67;;;2.50;;
56943;SDS011;42848;42.524;12.052;2023-04-19T12:29:45;3.58;;;2.80;;
56943;SDS011;42848;42.524;12.052;2023-04-19T12:32:11;7.13;;;4.57;;
56943;SDS011;42848;42.524;12.052;2023-04-19T12:34:37;6.05;;;4.00;;
56943;SDS011;42848;42.524;12.052;2023-04-19T12:37:02;5.88;;;4.05;;
56943;SDS011;42848;42.524;12.052;2023-04-19T12:39:28;4.78;;;3.47;;
56943;SDS011;42848;42.524;12.052;2023-04-19T12:41:55;5.65;;;4.07;;
56943;SDS011;42848;42.524;12.052;2023-04-19T12:44:21;4.75;;;3.30;;
56943;SDS011;42848;42.524;12.052;2023-04-19T12:46:47;7.03;;;4.80;;
56943;SDS011;42848;42.524;12.052;2023-04-19T12:49:13;6.32;;;4.40;;
56943;SDS011;42848;42.524;12.052;2023-04-19T12:51:42;7.05;;;3.92;;
56943;SDS011;42848;42.524;12.052;2023-04-19T12:54:07;4.63;;;3.63;;
56943;SDS011;42848;42.524;12.052;2023-04-19T12:56:33;5.57;;;3.50;;
56943;SDS011;42848;42.524;12.052;2023-04-19T12:58:59;5.53;;;3.78;;
56943;SDS011;42848;42.524;12.052;2023-04-19T13:01:25;5.53;;;3.50;;
56943;SDS011;42848;42.524;12.052;2023-04-19T13:03:50;5.25;;;3.47;;
56943;SDS011;42848;42.524;12.052;2023-04-19T13:06:16;5.18;;;3.20;;
56943;SDS011;42848;42.524;12.052;2023-04-19T13:08:42;5.03;;;3.50;;
56943;SDS011;42848;42.524;12.052;2023-04-19T13:11:08;5.95;;;3.70;;
56943;SDS011;42848;42.524;12.052;2023-04-19T13:13:33;5.55;;;3.60;;
56943;SDS011;42848;42.524;12.052;2023-04-19T13:15:59;5.45;;;3.97;;
56943;SDS011;42848;42.524;12.052;2023-04-19T13:18:25;5.20;;;3.67;;
56943;SDS011;42848;42.524;12.052;2023-04-19T13:20:51;7.10;;;3.90;;
56943;SDS011;42848;42.524;12.052;2023-04-19T13:23:18;7.60;;;3.90;;
56943;SDS011;42848;42.524;12.052;2023-04-19T13:25:43;5.43;;;4.10;;
56943;SDS011;42848;42.524;12.052;2023-04-19T13:28:09;6.60;;;4.07;;
56943;SDS011;42848;42.524;12.052;2023-04-19T13:30:35;5.57;;;4.18;;
56943;SDS011;42848;42.524;12.052;2023-04-19T13:33:00;5.72;;;4.15;;
56943;SDS011;42848;42.524;12.052;2023-04-19T13:35:26;5.97;;;4.07;;
56943;SDS011;42848;42.524;12.052;2023-04-19T13:37:52;5.95;;;4.30;;
56943;SDS011;42848;42.524;12.052;2023-04-19T13:40:18;6.13;;;3.78;;
56943;SDS011;42848;42.524;12.052;2023-04-19T13:42:43;6.63;;;4.50;;
56943;SDS011;42848;42.524;12.052;2023-04-19T13:45:09;6.00;;;4.22;;
56943;SDS011;42848;42.524;12.052;2023-04-19T13:47:35;6.18;;;4.55;;
56943;SDS011;42848;42.524;12.052;2023-04-19T13:50:01;5.20;;;3.95;;
56943;SDS011;42848;42.524;12.052;2023-04-19T13:52:26;6.65;;;3.83;;
56943;SDS011;42848;42.524;12.052;2023-04-19T13:54:52;4.53;;;3.40;;
56943;SDS011;42848;42.524;12.052;2023-04-19T13:57:18;4.38;;;3.35;;
56943;SDS011;42848;42.524;12.052;2023-04-19T13:59:43;4.68;;;3.50;;
56943;SDS011;42848;42.524;12.052;2023-04-19T14:02:09;6.38;;;4.13;;
56943;SDS011;42848;42.524;12.052;2023-04-19T14:04:35;5.72;;;4.10;;
56943;SDS011;42848;42.524;12.052;2023-04-19T14:07:00;5.28;;;4.10;;
56943;SDS011;42848;42.524;12.052;2023-04-19T14:09:26;4.70;;;3.70;;
56943;SDS011;42848;42.524;12.052;2023-04-19T14:11:52;6.40;;;4.28;;
56943;SDS011;42848;42.524;12.052;2023-04-19T14:14:17;5.85;;;4.43;;
56943;SDS011;42848;42.524;12.052;2023-04-19T14:16:43;5.93;;;4.25;;
56943;SDS011;42848;42.524;12.052;2023-04-19T14:19:09;6.22;;;4.40;;
56943;SDS011;42848;42.524;12.052;2023-04-19T14:21:35;6.00;;;4.35;;
56943;SDS011;42848;42.524;12.052;2023-04-19T14:24:00;11.82;;;8.20;;
56943;SDS011;42848;42.524;12.052;2023-04-19T14:26:26;7.93;;;5.43;;
56943;SDS011;42848;42.524;12.052;2023-04-19T14:28:52;16.00;;;12.30;;
56943;SDS011;42848;42.524;12.052;2023-04-19T14:31:17;15.25;;;11.70;;
56943;SDS011;42848;42.524;12.052;2023-04-19T14:33:43;6.65;;;4.03;;
56943;SDS011;42848;42.524;12.052;2023-04-19T14:36:09;12.13;;;6.47;;
56943;SDS011;42848;42.524;12.052;2023-04-19T14:38:34;7.28;;;4.53;;
56943;SDS011;42848;42.524;12.052;2023-04-19T14:41:00;12.25;;;7.95;;
56943;SDS011;42848;42.524;12.052;2023-04-19T14:43:27;4.43;;;3.25;;
56943;SDS011;42848;42.524;12.052;2023-04-19T14:45:54;6.55;;;4.70;;
56943;SDS011;42848;42.524;12.052;2023-04-19T14:48:20;12.85;;;8.45;;
56943;SDS011;42848;42.524;12.052;2023-04-19T14:50:46;4.30;;;3.22;;
56943;SDS011;42848;42.524;12.052;2023-04-19T14:53:12;7.88;;;5.30;;
56943;SDS011;42848;42.524;12.052;2023-04-19T14:55:38;6.22;;;4.82;;
56943;SDS011;42848;42.524;12.052;2023-04-19T14:58:04;5.30;;;3.28;;
56943;SDS011;42848;42.524;12.052;2023-04-19T15:00:30;5.63;;;3.67;;